createdAt,value
2023-12-17T00:02:03.457Z,-0.31
2023-12-17T00:04:32.238Z,-0.37
2023-12-17T00:07:01.651Z,-1.05
2023-12-17T00:09:30.569Z,-0.83
2023-12-17T00:12:00.741Z,-0.52
2023-12-17T00:14:28.959Z,-0.52
2023-12-17T00:16:57.652Z,-0.68
2023-12-17T00:19:26.309Z,-0.78
2023-12-17T00:21:54.792Z,-1.11
2023-12-17T00:24:23.649Z,-0.76
2023-12-17T00:26:54.013Z,-0.77
2023-12-17T00:29:25.670Z,-0.68
2023-12-17T00:32:00.521Z,-0.69
2023-12-17T00:34:30.463Z,-0.87
2023-12-17T00:36:59.925Z,-1.27
2023-12-17T00:39:28.833Z,-1.10
2023-12-17T00:41:57.966Z,-1.14
2023-12-17T00:44:28.561Z,-1.22
2023-12-17T00:46:57.518Z,-1.84
2023-12-17T00:49:27.599Z,-1.43
2023-12-17T00:51:57.448Z,-1.18
2023-12-17T00:54:26.270Z,-1.52
2023-12-17T00:56:56.301Z,-1.34
2023-12-17T00:59:30.158Z,-1.65
2023-12-17T01:02:00.488Z,-1.96
2023-12-17T01:04:34.013Z,-1.48
2023-12-17T01:07:03.585Z,-1.87
2023-12-17T01:09:34.935Z,-1.22
2023-12-17T01:12:09.743Z,-1.24
2023-12-17T01:14:41.130Z,-1.62
2023-12-17T01:17:11.949Z,-1.62
2023-12-17T01:19:44.619Z,-1.26
2023-12-17T01:22:14.652Z,-1.95
2023-12-17T01:24:44.770Z,-1.25
2023-12-17T01:27:13.355Z,-1.41
2023-12-17T01:29:46.760Z,-1.46
2023-12-17T01:32:19.779Z,-1.47
2023-12-17T01:34:50.564Z,-1.94
2023-12-17T01:37:20.783Z,-2.20
2023-12-17T01:39:51.112Z,-2.26
2023-12-17T01:42:20.600Z,-1.81
2023-12-17T01:44:51.876Z,-1.81
2023-12-17T01:47:22.844Z,-1.80
2023-12-17T01:49:52.427Z,-1.95
2023-12-17T01:52:21.804Z,-1.97
2023-12-17T01:54:51.110Z,-2.05
2023-12-17T01:57:20.328Z,-2.04
2023-12-17T01:59:52.000Z,-2.09
2023-12-17T02:02:21.462Z,-2.13
2023-12-17T02:04:50.651Z,-2.37
2023-12-17T02:07:19.868Z,-2.08
2023-12-17T02:09:49.660Z,-2.14
2023-12-17T02:12:26.463Z,-2.36
2023-12-17T02:14:56.383Z,-2.03
2023-12-17T02:17:29.311Z,-2.04
2023-12-17T02:19:58.041Z,-2.11
2023-12-17T02:22:28.967Z,-2.16
2023-12-17T02:25:02.980Z,-2.48
2023-12-17T02:27:39.176Z,-2.28
2023-12-17T02:30:12.767Z,-2.16
2023-12-17T02:32:44.479Z,-2.18
2023-12-17T02:35:14.631Z,-2.13
2023-12-17T02:37:44.941Z,-2.24
2023-12-17T02:40:15.981Z,-2.18
2023-12-17T02:42:52.299Z,-2.40
2023-12-17T02:45:23.923Z,-2.04
2023-12-17T02:47:56.161Z,-2.51
2023-12-17T02:50:32.339Z,-2.38
2023-12-17T02:53:03.081Z,-2.43
2023-12-17T02:55:36.862Z,-2.49
2023-12-17T02:58:08.323Z,-2.13
2023-12-17T03:00:37.650Z,-2.20
2023-12-17T03:03:07.411Z,-2.48
2023-12-17T03:05:37.890Z,-2.29
2023-12-17T03:08:08.290Z,-2.27
2023-12-17T03:10:43.938Z,-2.43
2023-12-17T03:13:13.952Z,-2.28
2023-12-17T03:15:47.017Z,-2.21
2023-12-17T03:18:17.396Z,-2.72
2023-12-17T03:20:47.293Z,-2.41
2023-12-17T03:23:17.318Z,-2.28
2023-12-17T03:25:50.790Z,-2.32
2023-12-17T03:28:20.295Z,-2.32
2023-12-17T03:30:51.399Z,-2.40
2023-12-17T03:33:20.392Z,-2.09
2023-12-17T03:35:50.466Z,-2.33
2023-12-17T03:38:20.461Z,-2.03
2023-12-17T03:40:54.373Z,-2.41
2023-12-17T03:43:24.488Z,-2.33
2023-12-17T03:45:53.586Z,-2.23
2023-12-17T03:48:23.713Z,-2.23
2023-12-17T03:50:53.832Z,-2.15
2023-12-17T03:53:22.909Z,-2.48
2023-12-17T03:55:54.586Z,-2.30
2023-12-17T03:58:29.202Z,-2.33
2023-12-17T04:00:57.989Z,-2.22
2023-12-17T04:03:29.098Z,-2.37
2023-12-17T04:06:00.826Z,-2.47
2023-12-17T04:08:29.953Z,-2.77
2023-12-17T04:11:00.100Z,-2.47
2023-12-17T04:13:29.043Z,-2.37
2023-12-17T04:15:57.797Z,-2.57
2023-12-17T04:18:26.062Z,-2.52
2023-12-17T04:20:56.552Z,-2.72
2023-12-17T04:23:24.865Z,-2.48
2023-12-17T04:25:53.859Z,-2.43
2023-12-17T04:28:25.095Z,-2.42
2023-12-17T04:30:54.093Z,-2.56
2023-12-17T04:33:24.307Z,-2.63
2023-12-17T04:35:53.318Z,-2.70
2023-12-17T04:38:24.636Z,-2.51
2023-12-17T04:41:01.243Z,-2.43
2023-12-17T04:43:32.886Z,-2.30
2023-12-17T04:46:01.876Z,-2.12
2023-12-17T04:48:40.615Z,-2.33
2023-12-17T04:51:09.914Z,-2.54
2023-12-17T04:53:46.774Z,-2.42
2023-12-17T04:56:18.233Z,-2.43
2023-12-17T04:58:50.893Z,-2.51
2023-12-17T05:01:21.036Z,-2.42
2023-12-17T05:03:51.328Z,-2.42
2023-12-17T05:06:20.560Z,-2.38
2023-12-17T05:08:48.834Z,-2.72
2023-12-17T05:11:17.388Z,-2.66
2023-12-17T05:13:46.189Z,-2.61
2023-12-17T05:16:17.324Z,-2.66
2023-12-17T05:18:46.320Z,-2.60
2023-12-17T05:21:14.499Z,-2.53
2023-12-17T05:23:42.572Z,-2.62
2023-12-17T05:26:11.254Z,-2.87
2023-12-17T05:28:42.534Z,-2.66
2023-12-17T05:31:12.047Z,-2.76
2023-12-17T05:33:42.718Z,-2.56
2023-12-17T05:36:14.126Z,-2.72
2023-12-17T05:38:47.489Z,-2.63
2023-12-17T05:41:18.218Z,-3.22
2023-12-17T05:43:47.214Z,-2.91
2023-12-17T05:46:16.491Z,-2.57
2023-12-17T05:48:46.088Z,-2.57
2023-12-17T05:51:14.408Z,-2.51
2023-12-17T05:53:46.949Z,-2.53
2023-12-17T05:56:17.489Z,-2.81
2023-12-17T05:58:48.835Z,-2.57
2023-12-17T06:01:20.949Z,-2.54
2023-12-17T06:03:51.558Z,-2.27
2023-12-17T06:06:20.286Z,-2.29
2023-12-17T06:08:48.960Z,-2.31
2023-12-17T06:11:18.099Z,-2.18
2023-12-17T06:13:46.577Z,-2.24
2023-12-17T06:16:15.400Z,-2.32
2023-12-17T06:18:44.273Z,-2.21
2023-12-17T06:21:22.856Z,-2.35
2023-12-17T06:23:52.193Z,-2.68
2023-12-17T06:26:21.464Z,-2.41
2023-12-17T06:28:49.965Z,-1.94
2023-12-17T06:31:18.985Z,-2.13
2023-12-17T06:33:48.008Z,-1.86
2023-12-17T06:36:18.322Z,-1.94
2023-12-17T06:38:46.379Z,-1.64
2023-12-17T06:41:14.391Z,-1.55
2023-12-17T06:43:42.877Z,-1.29
2023-12-17T06:46:24.519Z,-1.20
2023-12-17T06:48:53.063Z,-0.33
2023-12-17T06:51:25.425Z,0.05
2023-12-17T06:53:54.571Z,0.30
2023-12-17T06:56:23.808Z,0.44
2023-12-17T06:58:54.221Z,0.08
2023-12-17T07:01:22.392Z,0.24
2023-12-17T07:03:51.414Z,-0.35
2023-12-17T07:06:19.561Z,-0.21
2023-12-17T07:08:50.658Z,-1.39
2023-12-17T07:11:20.296Z,1.56
2023-12-17T07:13:50.359Z,0.04
2023-12-17T07:16:27.350Z,-0.18
2023-12-17T07:18:55.496Z,0.93
2023-12-17T07:21:23.819Z,0.25
2023-12-17T07:23:53.481Z,0.09
2023-12-17T07:26:23.285Z,0.70
2023-12-17T07:28:51.597Z,0.26
2023-12-17T07:31:20.006Z,0.48
2023-12-17T07:33:48.422Z,0.30
2023-12-17T07:36:17.391Z,-0.58
2023-12-17T07:38:46.219Z,0.45
2023-12-17T07:41:15.828Z,0.09
2023-12-17T07:43:44.211Z,0.95
2023-12-17T07:46:12.198Z,0.94
2023-12-17T07:48:40.654Z,0.84
2023-12-17T07:51:09.848Z,0.52
2023-12-17T07:53:37.996Z,0.36
2023-12-17T07:56:09.505Z,0.88
2023-12-17T07:58:38.997Z,0.80
2023-12-17T08:01:07.161Z,0.77
2023-12-17T08:03:35.760Z,0.16
2023-12-17T08:06:04.145Z,0.95
2023-12-17T08:08:33.159Z,0.91
2023-12-17T08:11:01.655Z,0.07
2023-12-17T08:13:29.693Z,1.01
2023-12-17T08:15:59.741Z,1.15
2023-12-17T08:18:27.893Z,0.23
2023-12-17T08:20:56.429Z,1.00
2023-12-17T08:23:24.409Z,0.44
2023-12-17T08:25:52.942Z,0.77
2023-12-17T08:28:21.758Z,1.41
2023-12-17T08:30:50.659Z,0.98
2023-12-17T08:33:20.328Z,1.15
2023-12-17T08:35:49.017Z,1.86
2023-12-17T08:38:17.339Z,1.52
2023-12-17T08:40:48.430Z,0.81
2023-12-17T08:43:16.580Z,-0.06
2023-12-17T08:45:44.770Z,1.82
2023-12-17T08:48:13.361Z,1.93
2023-12-17T08:50:42.942Z,2.02
2023-12-17T08:53:10.945Z,1.98
2023-12-17T08:55:39.418Z,1.30
2023-12-17T08:58:07.456Z,1.65
2023-12-17T09:00:36.267Z,1.64
2023-12-17T09:03:04.873Z,1.08
2023-12-17T09:05:33.004Z,1.68
2023-12-17T09:08:02.503Z,1.85
2023-12-17T09:10:30.837Z,1.41
2023-12-17T09:12:59.043Z,-1.03
2023-12-17T09:15:27.307Z,2.48
2023-12-17T09:17:55.730Z,2.44
2023-12-17T09:20:24.696Z,2.41
2023-12-17T09:22:53.277Z,2.31
2023-12-17T09:25:23.023Z,2.32
2023-12-17T09:27:52.936Z,2.63
2023-12-17T09:30:21.077Z,2.51
2023-12-17T09:32:49.848Z,2.63
2023-12-17T09:35:20.960Z,2.23
2023-12-17T09:37:49.106Z,2.52
2023-12-17T09:40:18.342Z,2.25
2023-12-17T09:42:53.820Z,3.11
2023-12-17T09:45:22.800Z,3.18
2023-12-17T09:47:51.023Z,2.91
2023-12-17T09:50:19.351Z,3.14
2023-12-17T09:52:47.700Z,2.80
2023-12-17T09:55:17.652Z,3.12
2023-12-17T09:57:47.145Z,3.17
2023-12-17T10:00:16.323Z,3.33
2023-12-17T10:02:44.722Z,2.87
2023-12-17T10:05:12.774Z,2.49
2023-12-17T10:07:41.443Z,2.43
2023-12-17T10:10:10.604Z,3.04
2023-12-17T10:12:40.481Z,2.98
2023-12-17T10:15:13.198Z,2.25
2023-12-17T10:17:43.452Z,1.46
2023-12-17T10:20:12.925Z,2.56
2023-12-17T10:22:48.611Z,2.69
2023-12-17T10:25:27.618Z,1.98
2023-12-17T10:28:00.186Z,3.00
2023-12-17T10:30:32.745Z,3.44
2023-12-17T10:33:03.250Z,3.53
2023-12-17T10:35:36.922Z,2.26
2023-12-17T10:38:08.178Z,3.51
2023-12-17T10:40:41.047Z,3.35
2023-12-17T10:43:10.643Z,2.82
2023-12-17T10:45:41.742Z,3.54
2023-12-17T10:48:13.588Z,3.63
2023-12-17T10:50:44.176Z,3.20
2023-12-17T10:53:13.858Z,2.04
2023-12-17T10:55:42.096Z,3.10
2023-12-17T10:58:15.795Z,3.63
2023-12-17T11:00:47.183Z,3.95
2023-12-17T11:03:16.493Z,3.72
2023-12-17T11:05:56.690Z,3.83
2023-12-17T11:08:26.965Z,3.58
2023-12-17T11:10:56.000Z,3.90
2023-12-17T11:13:24.929Z,4.55
2023-12-17T11:15:56.415Z,4.50
2023-12-17T11:18:25.244Z,4.15
2023-12-17T11:20:55.469Z,4.08
2023-12-17T11:23:24.054Z,3.37
2023-12-17T11:25:56.326Z,4.08
2023-12-17T11:28:27.520Z,3.55
2023-12-17T11:30:58.378Z,3.44
2023-12-17T11:33:27.012Z,3.49
2023-12-17T11:35:56.375Z,3.65
2023-12-17T11:38:24.947Z,4.34
2023-12-17T11:40:53.304Z,4.18
2023-12-17T11:43:24.641Z,4.49
2023-12-17T11:45:53.595Z,4.13
2023-12-17T11:48:23.872Z,4.43
2023-12-17T11:50:53.893Z,4.40
2023-12-17T11:53:23.380Z,4.16
2023-12-17T11:55:54.416Z,4.30
2023-12-17T11:58:24.149Z,2.97
2023-12-17T12:01:06.161Z,3.34
2023-12-17T12:03:36.651Z,3.11
2023-12-17T12:06:10.500Z,2.21
2023-12-17T12:08:44.387Z,1.81
2023-12-17T12:11:14.272Z,4.29
2023-12-17T12:13:44.982Z,3.98
2023-12-17T12:16:27.380Z,2.93
2023-12-17T12:19:08.615Z,4.19
2023-12-17T12:21:39.545Z,2.74
2023-12-17T12:24:11.840Z,4.44
2023-12-17T12:27:20.035Z,2.72
2023-12-17T12:29:49.409Z,4.29
2023-12-17T12:32:28.936Z,1.66
2023-12-17T12:34:58.443Z,4.61
2023-12-17T12:37:36.531Z,4.73
2023-12-17T12:40:09.822Z,4.85
2023-12-17T12:42:40.206Z,4.47
2023-12-17T12:45:11.994Z,4.92
2023-12-17T12:47:41.046Z,4.71
2023-12-17T12:50:11.646Z,4.98
2023-12-17T12:52:40.238Z,4.71
2023-12-17T12:55:08.584Z,4.34
2023-12-17T12:57:37.128Z,4.87
2023-12-17T13:00:06.118Z,5.05
2023-12-17T13:02:34.290Z,4.96
2023-12-17T13:05:02.290Z,5.03
2023-12-17T13:07:33.405Z,4.62
2023-12-17T13:10:08.233Z,4.66
2023-12-17T13:12:40.052Z,4.76
2023-12-17T13:15:10.048Z,4.80
2023-12-17T13:17:38.215Z,4.77
2023-12-17T13:20:09.881Z,3.77
2023-12-17T13:22:39.574Z,4.60
2023-12-17T13:25:09.632Z,4.54
2023-12-17T13:27:37.914Z,4.37
2023-12-17T13:30:07.536Z,2.48
2023-12-17T13:32:35.721Z,4.78
2023-12-17T13:35:03.827Z,4.59
2023-12-17T13:37:32.105Z,4.63
2023-12-17T13:40:01.485Z,4.52
2023-12-17T13:42:29.774Z,4.70
2023-12-17T13:44:57.887Z,4.78
2023-12-17T13:47:25.977Z,4.65
2023-12-17T13:49:55.358Z,4.59
2023-12-17T13:52:23.911Z,4.45
2023-12-17T13:54:52.221Z,4.31
2023-12-17T13:57:21.699Z,4.69
2023-12-17T13:59:50.209Z,4.69
2023-12-17T14:02:19.183Z,4.41
2023-12-17T14:04:47.264Z,4.45
2023-12-17T14:07:15.390Z,3.74
2023-12-17T14:09:46.072Z,4.14
2023-12-17T14:12:14.475Z,4.13
2023-12-17T14:14:45.415Z,3.82
2023-12-17T14:17:13.817Z,4.10
2023-12-17T14:19:41.774Z,4.14
2023-12-17T14:22:10.070Z,4.08
2023-12-17T14:24:38.353Z,4.00
2023-12-17T14:27:06.911Z,3.89
2023-12-17T14:29:35.068Z,3.85
2023-12-17T14:32:04.924Z,3.45
2023-12-17T14:34:37.688Z,2.79
2023-12-17T14:37:06.106Z,3.68
2023-12-17T14:39:35.100Z,3.53
2023-12-17T14:42:03.801Z,3.63
2023-12-17T14:44:31.777Z,3.54
2023-12-17T14:47:00.735Z,3.46
2023-12-17T14:49:30.557Z,3.36
2023-12-17T14:51:58.688Z,3.28
2023-12-17T14:54:26.907Z,3.28
2023-12-17T14:56:55.192Z,3.15
2023-12-17T14:59:23.594Z,3.06
2023-12-17T15:01:55.775Z,3.05
2023-12-17T15:04:28.474Z,2.83
2023-12-17T15:06:58.231Z,2.94
2023-12-17T15:09:28.210Z,2.95
2023-12-17T15:11:56.675Z,2.88
2023-12-17T15:14:25.569Z,2.83
2023-12-17T15:16:53.670Z,2.75
2023-12-17T15:19:22.498Z,2.64
2023-12-17T15:21:51.493Z,2.69
2023-12-17T15:24:20.874Z,2.75
2023-12-17T15:26:48.982Z,2.31
2023-12-17T15:29:17.130Z,2.46
2023-12-17T15:31:45.356Z,2.48
2023-12-17T15:34:14.534Z,0.84
2023-12-17T15:36:43.935Z,2.41
2023-12-17T15:39:13.076Z,2.33
2023-12-17T15:41:42.657Z,2.15
2023-12-17T15:44:11.248Z,2.23
2023-12-17T15:46:40.593Z,2.05
2023-12-17T15:49:08.923Z,2.06
2023-12-17T15:51:38.855Z,1.74
2023-12-17T15:54:07.677Z,1.27
2023-12-17T15:56:35.841Z,1.96
2023-12-17T15:59:05.549Z,1.20
2023-12-17T16:01:33.502Z,0.47
2023-12-17T16:04:01.643Z,1.92
2023-12-17T16:06:29.945Z,-0.65
2023-12-17T16:08:58.135Z,1.60
2023-12-17T16:11:26.356Z,1.20
2023-12-17T16:13:54.577Z,1.19
2023-12-17T16:16:25.492Z,0.85
2023-12-17T16:18:53.879Z,1.58
2023-12-17T16:21:22.485Z,1.65
2023-12-17T16:23:50.616Z,1.59
2023-12-17T16:26:18.748Z,1.61
2023-12-17T16:28:47.756Z,1.41
2023-12-17T16:31:16.656Z,1.19
2023-12-17T16:33:47.610Z,0.70
2023-12-17T16:36:16.820Z,-0.77
2023-12-17T16:38:45.359Z,0.76
2023-12-17T16:41:13.665Z,-0.88
2023-12-17T16:43:42.802Z,1.05
2023-12-17T16:46:13.412Z,1.12
2023-12-17T16:48:41.577Z,1.06
2023-12-17T16:51:27.226Z,0.32
2023-12-17T16:53:55.512Z,1.09
2023-12-17T16:56:24.090Z,1.24
2023-12-17T16:58:53.426Z,1.32
2023-12-17T17:01:21.748Z,0.47
2023-12-17T17:03:49.901Z,1.27
2023-12-17T17:06:17.986Z,1.32
2023-12-17T17:08:47.526Z,0.21
2023-12-17T17:11:16.254Z,0.84
2023-12-17T17:13:44.368Z,0.28
2023-12-17T17:16:12.785Z,-0.41
2023-12-17T17:18:41.156Z,1.21
2023-12-17T17:21:11.146Z,0.63
2023-12-17T17:23:39.492Z,0.38
2023-12-17T17:26:09.055Z,1.19
2023-12-17T17:28:39.641Z,1.06
2023-12-17T17:31:08.683Z,1.12
2023-12-17T17:33:37.138Z,0.52
2023-12-17T17:36:08.249Z,0.64
2023-12-17T17:38:39.228Z,0.30
2023-12-17T17:41:09.165Z,0.83
2023-12-17T17:43:37.248Z,0.50
2023-12-17T17:46:05.634Z,0.36
2023-12-17T17:48:33.938Z,0.65
2023-12-17T17:51:05.215Z,-0.39
2023-12-17T17:53:35.187Z,0.63
2023-12-17T17:56:05.975Z,0.79
2023-12-17T17:58:35.374Z,0.65
2023-12-17T18:01:03.456Z,0.57
2023-12-17T18:03:31.744Z,0.72
2023-12-17T18:05:59.840Z,0.72
2023-12-17T18:08:27.902Z,0.51
2023-12-17T18:10:56.101Z,0.40
2023-12-17T18:13:26.421Z,-0.05
2023-12-17T18:15:57.305Z,0.54
2023-12-17T18:18:25.475Z,0.47
2023-12-17T18:20:53.682Z,0.52
2023-12-17T18:23:21.756Z,0.57
2023-12-17T18:25:50.186Z,0.03
2023-12-17T18:28:18.202Z,0.23
2023-12-17T18:30:48.892Z,0.40
2023-12-17T18:33:18.609Z,0.49
2023-12-17T18:35:46.628Z,0.19
2023-12-17T18:38:14.940Z,0.20
2023-12-17T18:40:42.930Z,-0.22
2023-12-17T18:43:11.173Z,0.49
2023-12-17T18:45:40.786Z,-0.42
2023-12-17T18:48:09.614Z,0.33
2023-12-17T18:50:40.619Z,0.61
2023-12-17T18:53:08.617Z,0.16
2023-12-17T18:55:36.575Z,0.54
2023-12-17T18:58:04.785Z,0.49
2023-12-17T19:00:34.035Z,0.51
2023-12-17T19:03:02.110Z,0.50
2023-12-17T19:05:30.190Z,-0.03
2023-12-17T19:07:59.910Z,0.46
2023-12-17T19:10:27.845Z,0.45
2023-12-17T19:12:55.858Z,0.33
2023-12-17T19:15:24.108Z,0.11
2023-12-17T19:17:53.444Z,-0.04
2023-12-17T19:20:22.229Z,-0.12
2023-12-17T19:22:50.235Z,0.10
2023-12-17T19:25:19.782Z,0.25
2023-12-17T19:27:47.762Z,-0.17
2023-12-17T19:30:17.116Z,-0.05
2023-12-17T19:32:45.509Z,-0.02
2023-12-17T19:35:13.703Z,0.08
2023-12-17T19:37:42.360Z,-0.02
2023-12-17T19:40:13.329Z,-0.74
2023-12-17T19:42:43.434Z,-0.32
2023-12-17T19:45:12.164Z,-0.23
2023-12-17T19:47:40.291Z,-0.11
2023-12-17T19:50:09.237Z,-0.05
2023-12-17T19:52:37.169Z,-0.10
2023-12-17T19:55:05.788Z,-0.09
2023-12-17T19:57:34.146Z,-0.83
2023-12-17T20:00:03.744Z,-0.22
2023-12-17T20:02:31.713Z,-0.41
2023-12-17T20:05:00.155Z,-0.40
2023-12-17T20:07:28.356Z,-0.73
2023-12-17T20:09:56.563Z,-0.44
2023-12-17T20:12:24.782Z,-0.68
2023-12-17T20:14:52.718Z,-0.50
2023-12-17T20:17:22.164Z,-0.50
2023-12-17T20:19:50.310Z,-0.42
2023-12-17T20:22:19.738Z,-0.57
2023-12-17T20:24:47.717Z,-0.31
2023-12-17T20:27:15.766Z,-0.27
2023-12-17T20:29:44.507Z,-0.27
2023-12-17T20:32:13.150Z,-0.44
2023-12-17T20:34:42.768Z,-0.44
2023-12-17T20:37:10.936Z,-0.69
2023-12-17T20:39:39.522Z,-0.49
2023-12-17T20:42:08.646Z,-0.39
2023-12-17T20:44:37.475Z,-1.18
2023-12-17T20:47:06.029Z,-0.18
2023-12-17T20:49:34.885Z,-0.19
2023-12-17T20:52:05.642Z,-1.78
2023-12-17T20:54:34.327Z,-3.39
2023-12-17T20:57:02.693Z,-1.50
2023-12-17T20:59:30.710Z,-0.25
2023-12-17T21:01:58.778Z,-0.88
2023-12-17T21:04:26.843Z,-0.18
2023-12-17T21:06:55.049Z,-1.07
2023-12-17T21:09:25.399Z,-0.76
2023-12-17T21:11:53.429Z,-0.27
2023-12-17T21:14:21.577Z,-0.81
2023-12-17T21:16:49.755Z,-0.20
2023-12-17T21:19:19.702Z,-0.12
2023-12-17T21:21:47.992Z,-0.22
2023-12-17T21:24:17.196Z,-0.36
2023-12-17T21:26:47.093Z,-0.13
2023-12-17T21:29:15.555Z,-0.80
2023-12-17T21:31:43.985Z,-2.77
2023-12-17T21:34:21.095Z,-0.10
2023-12-17T21:36:49.884Z,-0.07
2023-12-17T21:39:18.044Z,-0.01
2023-12-17T21:41:48.188Z,-0.08
2023-12-17T21:44:16.673Z,-0.09
2023-12-17T21:46:44.985Z,-0.28
2023-12-17T21:49:15.424Z,-0.02
2023-12-17T21:51:44.102Z,-0.18
2023-12-17T21:54:12.246Z,-0.16
2023-12-17T21:56:41.361Z,-0.18
2023-12-17T21:59:10.810Z,-0.21
2023-12-17T22:01:38.953Z,-0.84
2023-12-17T22:04:10.385Z,-0.27
2023-12-17T22:06:40.407Z,-0.15
2023-12-17T22:09:08.485Z,-0.39
2023-12-17T22:11:42.650Z,-0.28
2023-12-17T22:14:12.064Z,-0.26
2023-12-17T22:16:40.651Z,-1.28
2023-12-17T22:19:08.900Z,-0.69
2023-12-17T22:21:37.879Z,-0.19
2023-12-17T22:24:06.666Z,-0.17
2023-12-17T22:26:34.951Z,-0.63
2023-12-17T22:29:02.892Z,-0.44
2023-12-17T22:31:32.292Z,-0.58
2023-12-17T22:34:00.512Z,-0.71
2023-12-17T22:36:28.584Z,-0.77
2023-12-17T22:38:56.768Z,-0.39
2023-12-17T22:41:24.995Z,-0.66
2023-12-17T22:43:53.060Z,-0.36
2023-12-17T22:46:21.140Z,-0.69
2023-12-17T22:48:50.975Z,-3.36
2023-12-17T22:51:19.254Z,-0.50
2023-12-17T22:53:47.296Z,-0.81
2023-12-17T22:56:15.516Z,-0.76
2023-12-17T22:58:43.639Z,-0.76
2023-12-17T23:01:18.978Z,-0.69
2023-12-17T23:03:48.623Z,-0.36
2023-12-17T23:06:19.314Z,-0.49
2023-12-17T23:08:47.294Z,-1.02
2023-12-17T23:11:15.690Z,-0.40
2023-12-17T23:13:43.823Z,-0.69
2023-12-17T23:16:11.766Z,-0.30
2023-12-17T23:18:39.996Z,-0.40
2023-12-17T23:21:08.149Z,-0.52
2023-12-17T23:23:37.495Z,-0.44
2023-12-17T23:26:07.484Z,-0.36
2023-12-17T23:28:35.488Z,-1.21
2023-12-17T23:31:03.633Z,-0.25
2023-12-17T23:33:33.701Z,-0.20
2023-12-17T23:36:01.996Z,-0.70
2023-12-17T23:38:30.002Z,-0.75
2023-12-17T23:40:59.620Z,-2.37
2023-12-17T23:43:27.717Z,-0.62
2023-12-17T23:45:56.092Z,-0.23
2023-12-17T23:48:24.262Z,-0.47
2023-12-17T23:50:52.319Z,-0.39
2023-12-17T23:53:20.313Z,-0.22
2023-12-17T23:55:48.376Z,-0.31
2023-12-17T23:58:17.768Z,-0.46
